sensor_id;sensor_type;location;lat;lon;timestamp;temperature;humidity
20174;DHT22;10246;50.620;7.232;2024-02-26T00:01:28;9.20;1.00
20174;DHT22;10246;50.620;7.232;2024-02-26T00:03:58;9.20;1.00
20174;DHT22;10246;50.620;7.232;2024-02-26T00:06:27;9.20;1.00
20174;DHT22;10246;50.620;7.232;2024-02-26T00:08:54;9.20;1.00
20174;DHT22;10246;50.620;7.232;2024-02-26T00:11:21;9.20;1.00
20174;DHT22;10246;50.620;7.232;2024-02-26T00:13:48;9.20;1.00
20174;DHT22;10246;50.620;7.232;2024-02-26T00:16:16;9.20;1.00
20174;DHT22;10246;50.620;7.232;2024-02-26T00:18:42;9.20;1.00
20174;DHT22;10246;50.620;7.232;2024-02-26T00:21:09;9.30;1.00
20174;DHT22;10246;50.620;7.232;2024-02-26T00:23:36;9.40;1.00
20174;DHT22;10246;50.620;7.232;2024-02-26T00:26:03;9.40;1.00
20174;DHT22;10246;50.620;7.232;2024-02-26T00:28:29;9.50;1.00
20174;DHT22;10246;50.620;7.232;2024-02-26T00:30:56;9.40;1.00
20174;DHT22;10246;50.620;7.232;2024-02-26T00:33:24;9.40;1.00
20174;DHT22;10246;50.620;7.232;2024-02-26T00:35:51;9.40;1.00
20174;DHT22;10246;50.620;7.232;2024-02-26T00:38:18;9.40;1.00
20174;DHT22;10246;50.620;7.232;2024-02-26T00:40:44;9.30;1.00
20174;DHT22;10246;50.620;7.232;2024-02-26T00:43:11;9.40;1.00
20174;DHT22;10246;50.620;7.232;2024-02-26T00:45:41;9.40;1.00
20174;DHT22;10246;50.620;7.232;2024-02-26T00:48:07;9.40;1.00
20174;DHT22;10246;50.620;7.232;2024-02-26T00:50:35;9.50;1.00
20174;DHT22;10246;50.620;7.232;2024-02-26T00:53:02;9.50;1.00
20174;DHT22;10246;50.620;7.232;2024-02-26T00:55:29;9.40;1.00
20174;DHT22;10246;50.620;7.232;2024-02-26T00:57:56;9.40;1.00
20174;DHT22;10246;50.620;7.232;2024-02-26T01:00:22;9.40;1.00
20174;DHT22;10246;50.620;7.232;2024-02-26T01:02:50;9.40;1.00
20174;DHT22;10246;50.620;7.232;2024-02-26T01:05:17;9.40;1.00
20174;DHT22;10246;50.620;7.232;2024-02-26T01:07:45;9.50;1.00
20174;DHT22;10246;50.620;7.232;2024-02-26T01:10:12;9.50;1.00
20174;DHT22;10246;50.620;7.232;2024-02-26T01:12:39;9.50;1.00
20174;DHT22;10246;50.620;7.232;2024-02-26T01:15:06;9.50;1.00
20174;DHT22;10246;50.620;7.232;2024-02-26T01:17:33;9.50;1.00
20174;DHT22;10246;50.620;7.232;2024-02-26T01:20:00;9.50;1.00
20174;DHT22;10246;50.620;7.232;2024-02-26T01:22:27;9.40;1.00
20174;DHT22;10246;50.620;7.232;2024-02-26T01:24:55;9.50;1.00
20174;DHT22;10246;50.620;7.232;2024-02-26T01:27:22;9.50;1.00
20174;DHT22;10246;50.620;7.232;2024-02-26T01:29:52;9.40;1.00
20174;DHT22;10246;50.620;7.232;2024-02-26T01:32:18;9.40;1.00
20174;DHT22;10246;50.620;7.232;2024-02-26T01:34:45;9.40;1.00
20174;DHT22;10246;50.620;7.232;2024-02-26T01:37:12;9.40;1.00
20174;DHT22;10246;50.620;7.232;2024-02-26T01:39:39;9.30;1.00
20174;DHT22;10246;50.620;7.232;2024-02-26T01:42:08;9.30;1.00
20174;DHT22;10246;50.620;7.232;2024-02-26T01:44:35;9.30;1.00
20174;DHT22;10246;50.620;7.232;2024-02-26T01:47:04;9.30;1.00
20174;DHT22;10246;50.620;7.232;2024-02-26T01:49:31;9.30;1.00
20174;DHT22;10246;50.620;7.232;2024-02-26T01:51:58;9.30;1.00
20174;DHT22;10246;50.620;7.232;2024-02-26T01:54:25;9.30;1.00
20174;DHT22;10246;50.620;7.232;2024-02-26T01:56:52;9.30;1.00
20174;DHT22;10246;50.620;7.232;2024-02-26T01:59:20;9.20;1.00
20174;DHT22;10246;50.620;7.232;2024-02-26T02:01:52;9.20;1.00
20174;DHT22;10246;50.620;7.232;2024-02-26T02:04:19;9.20;1.00
20174;DHT22;10246;50.620;7.232;2024-02-26T02:06:48;9.30;1.00
20174;DHT22;10246;50.620;7.232;2024-02-26T02:09:15;9.30;1.00
20174;DHT22;10246;50.620;7.232;2024-02-26T02:11:42;9.20;1.00
20174;DHT22;10246;50.620;7.232;2024-02-26T02:14:11;9.20;1.00
20174;DHT22;10246;50.620;7.232;2024-02-26T02:16:39;9.20;1.00
20174;DHT22;10246;50.620;7.232;2024-02-26T02:19:05;9.20;1.00
20174;DHT22;10246;50.620;7.232;2024-02-26T02:21:33;9.20;1.00
20174;DHT22;10246;50.620;7.232;2024-02-26T02:24:00;9.20;1.00
20174;DHT22;10246;50.620;7.232;2024-02-26T02:26:27;9.30;1.00
20174;DHT22;10246;50.620;7.232;2024-02-26T02:28:54;9.30;1.00
20174;DHT22;10246;50.620;7.232;2024-02-26T02:31:20;9.30;1.00
20174;DHT22;10246;50.620;7.232;2024-02-26T02:33:48;9.40;1.00
20174;DHT22;10246;50.620;7.232;2024-02-26T02:36:14;9.40;1.00
20174;DHT22;10246;50.620;7.232;2024-02-26T02:38:50;9.30;1.00
20174;DHT22;10246;50.620;7.232;2024-02-26T02:41:17;9.30;1.00
20174;DHT22;10246;50.620;7.232;2024-02-26T02:43:44;9.20;1.00
20174;DHT22;10246;50.620;7.232;2024-02-26T02:46:11;9.20;1.00
20174;DHT22;10246;50.620;7.232;2024-02-26T02:48:38;9.20;1.00
20174;DHT22;10246;50.620;7.232;2024-02-26T02:51:05;9.20;1.00
20174;DHT22;10246;50.620;7.232;2024-02-26T02:53:31;9.20;1.00
20174;DHT22;10246;50.620;7.232;2024-02-26T02:56:00;9.20;1.00
20174;DHT22;10246;50.620;7.232;2024-02-26T02:58:26;9.20;1.00
20174;DHT22;10246;50.620;7.232;2024-02-26T03:00:53;9.20;1.00
20174;DHT22;10246;50.620;7.232;2024-02-26T03:03:20;9.10;1.00
20174;DHT22;10246;50.620;7.232;2024-02-26T03:05:49;9.10;1.00
20174;DHT22;10246;50.620;7.232;2024-02-26T03:08:16;9.10;1.00
20174;DHT22;10246;50.620;7.232;2024-02-26T03:10:44;9.10;1.00
20174;DHT22;10246;50.620;7.232;2024-02-26T03:13:12;9.10;1.00
20174;DHT22;10246;50.620;7.232;2024-02-26T03:15:39;9.10;1.00
20174;DHT22;10246;50.620;7.232;2024-02-26T03:18:06;9.00;1.00
20174;DHT22;10246;50.620;7.232;2024-02-26T03:20:33;9.00;3.30
20174;DHT22;10246;50.620;7.232;2024-02-26T03:22:59;8.90;5.40
20174;DHT22;10246;50.620;7.232;2024-02-26T03:25:26;8.80;7.70
20174;DHT22;10246;50.620;7.232;2024-02-26T03:27:53;8.70;9.10
20174;DHT22;10246;50.620;7.232;2024-02-26T03:30:21;8.70;9.40
20174;DHT22;10246;50.620;7.232;2024-02-26T03:32:48;8.70;10.30
20174;DHT22;10246;50.620;7.232;2024-02-26T03:35:14;8.70;11.60
20174;DHT22;10246;50.620;7.232;2024-02-26T03:37:41;8.70;11.20
20174;DHT22;10246;50.620;7.232;2024-02-26T03:40:08;8.60;9.80
20174;DHT22;10246;50.620;7.232;2024-02-26T03:42:35;8.60;10.00
20174;DHT22;10246;50.620;7.232;2024-02-26T03:45:02;8.60;10.90
20174;DHT22;10246;50.620;7.232;2024-02-26T03:47:30;8.50;10.80
20174;DHT22;10246;50.620;7.232;2024-02-26T03:49:57;8.50;11.50
20174;DHT22;10246;50.620;7.232;2024-02-26T03:52:24;8.60;9.20
20174;DHT22;10246;50.620;7.232;2024-02-26T03:54:51;8.50;9.40
20174;DHT22;10246;50.620;7.232;2024-02-26T03:57:18;8.50;9.40
20174;DHT22;10246;50.620;7.232;2024-02-26T03:59:44;8.50;9.90
20174;DHT22;10246;50.620;7.232;2024-02-26T04:02:11;8.50;9.70
20174;DHT22;10246;50.620;7.232;2024-02-26T04:04:39;8.60;9.50
20174;DHT22;10246;50.620;7.232;2024-02-26T04:07:06;8.50;9.00
20174;DHT22;10246;50.620;7.232;2024-02-26T04:09:33;8.50;9.10
20174;DHT22;10246;50.620;7.232;2024-02-26T04:12:00;8.40;9.30
20174;DHT22;10246;50.620;7.232;2024-02-26T04:14:26;8.40;9.50
20174;DHT22;10246;50.620;7.232;2024-02-26T04:16:53;8.40;10.00
20174;DHT22;10246;50.620;7.232;2024-02-26T04:19:20;8.40;10.40
20174;DHT22;10246;50.620;7.232;2024-02-26T04:21:48;8.40;10.80
20174;DHT22;10246;50.620;7.232;2024-02-26T04:24:14;8.40;10.20
20174;DHT22;10246;50.620;7.232;2024-02-26T04:26:41;8.40;10.40
20174;DHT22;10246;50.620;7.232;2024-02-26T04:29:08;8.40;10.70
20174;DHT22;10246;50.620;7.232;2024-02-26T04:31:34;8.50;11.00
20174;DHT22;10246;50.620;7.232;2024-02-26T04:34:01;8.40;11.50
20174;DHT22;10246;50.620;7.232;2024-02-26T04:36:28;8.40;11.90
20174;DHT22;10246;50.620;7.232;2024-02-26T04:38:56;8.40;11.60
20174;DHT22;10246;50.620;7.232;2024-02-26T04:41:22;8.40;12.00
20174;DHT22;10246;50.620;7.232;2024-02-26T04:43:49;8.40;12.00
20174;DHT22;10246;50.620;7.232;2024-02-26T04:46:16;8.30;12.90
20174;DHT22;10246;50.620;7.232;2024-02-26T04:48:43;8.40;12.00
20174;DHT22;10246;50.620;7.232;2024-02-26T04:51:12;8.40;12.40
20174;DHT22;10246;50.620;7.232;2024-02-26T04:53:38;8.40;13.00
20174;DHT22;10246;50.620;7.232;2024-02-26T04:56:06;8.30;13.40
20174;DHT22;10246;50.620;7.232;2024-02-26T04:58:33;8.30;13.00
20174;DHT22;10246;50.620;7.232;2024-02-26T05:01:00;8.40;13.60
20174;DHT22;10246;50.620;7.232;2024-02-26T05:03:27;8.40;13.30
20174;DHT22;10246;50.620;7.232;2024-02-26T05:05:54;8.30;13.30
20174;DHT22;10246;50.620;7.232;2024-02-26T05:08:22;8.40;13.00
20174;DHT22;10246;50.620;7.232;2024-02-26T05:10:49;8.40;13.10
20174;DHT22;10246;50.620;7.232;2024-02-26T05:13:17;8.30;12.60
20174;DHT22;10246;50.620;7.232;2024-02-26T05:15:44;8.30;13.60
20174;DHT22;10246;50.620;7.232;2024-02-26T05:18:14;8.30;13.30
20174;DHT22;10246;50.620;7.232;2024-02-26T05:20:41;8.30;13.60
20174;DHT22;10246;50.620;7.232;2024-02-26T05:23:07;8.30;13.10
20174;DHT22;10246;50.620;7.232;2024-02-26T05:25:34;8.40;12.50
20174;DHT22;10246;50.620;7.232;2024-02-26T05:28:01;8.30;12.60
20174;DHT22;10246;50.620;7.232;2024-02-26T05:30:29;8.20;12.30
20174;DHT22;10246;50.620;7.232;2024-02-26T05:32:56;8.20;13.20
20174;DHT22;10246;50.620;7.232;2024-02-26T05:35:22;8.20;13.60
20174;DHT22;10246;50.620;7.232;2024-02-26T05:37:49;8.20;14.20
20174;DHT22;10246;50.620;7.232;2024-02-26T05:40:16;8.20;14.50
20174;DHT22;10246;50.620;7.232;2024-02-26T05:42:43;8.10;14.40
20174;DHT22;10246;50.620;7.232;2024-02-26T05:45:10;8.20;14.90
20174;DHT22;10246;50.620;7.232;2024-02-26T05:47:38;8.20;14.80
20174;DHT22;10246;50.620;7.232;2024-02-26T05:50:08;8.20;14.00
20174;DHT22;10246;50.620;7.232;2024-02-26T05:52:36;8.10;14.30
20174;DHT22;10246;50.620;7.232;2024-02-26T05:55:04;8.10;13.80
20174;DHT22;10246;50.620;7.232;2024-02-26T05:57:31;8.10;14.60
20174;DHT22;10246;50.620;7.232;2024-02-26T05:59:58;8.10;15.10
20174;DHT22;10246;50.620;7.232;2024-02-26T06:02:29;8.10;15.20
20174;DHT22;10246;50.620;7.232;2024-02-26T06:04:57;8.10;15.40
20174;DHT22;10246;50.620;7.232;2024-02-26T06:07:24;8.10;15.40
20174;DHT22;10246;50.620;7.232;2024-02-26T06:09:50;8.00;15.20
20174;DHT22;10246;50.620;7.232;2024-02-26T06:12:17;8.10;14.90
20174;DHT22;10246;50.620;7.232;2024-02-26T06:14:44;8.10;14.70
20174;DHT22;10246;50.620;7.232;2024-02-26T06:17:10;8.10;15.10
20174;DHT22;10246;50.620;7.232;2024-02-26T06:19:37;8.10;14.50
20174;DHT22;10246;50.620;7.232;2024-02-26T06:22:05;8.00;15.20
20174;DHT22;10246;50.620;7.232;2024-02-26T06:24:32;7.90;15.60
20174;DHT22;10246;50.620;7.232;2024-02-26T06:26:59;8.00;15.80
20174;DHT22;10246;50.620;7.232;2024-02-26T06:29:25;8.00;16.10
20174;DHT22;10246;50.620;7.232;2024-02-26T06:31:52;8.00;16.60
20174;DHT22;10246;50.620;7.232;2024-02-26T06:34:19;7.90;16.50
20174;DHT22;10246;50.620;7.232;2024-02-26T06:36:45;8.00;16.60
20174;DHT22;10246;50.620;7.232;2024-02-26T06:39:13;8.00;16.50
20174;DHT22;10246;50.620;7.232;2024-02-26T06:41:41;8.10;16.70
20174;DHT22;10246;50.620;7.232;2024-02-26T06:44:08;8.00;17.10
20174;DHT22;10246;50.620;7.232;2024-02-26T06:46:34;8.00;16.70
20174;DHT22;10246;50.620;7.232;2024-02-26T06:49:01;8.00;17.30
20174;DHT22;10246;50.620;7.232;2024-02-26T06:51:29;7.90;17.00
20174;DHT22;10246;50.620;7.232;2024-02-26T06:53:56;7.90;17.30
20174;DHT22;10246;50.620;7.232;2024-02-26T06:56:24;8.00;17.40
20174;DHT22;10246;50.620;7.232;2024-02-26T06:58:51;8.00;17.40
20174;DHT22;10246;50.620;7.232;2024-02-26T07:01:18;8.00;17.40
20174;DHT22;10246;50.620;7.232;2024-02-26T07:03:44;8.00;17.70
20174;DHT22;10246;50.620;7.232;2024-02-26T07:06:11;8.00;17.10
20174;DHT22;10246;50.620;7.232;2024-02-26T07:08:38;8.00;17.60
20174;DHT22;10246;50.620;7.232;2024-02-26T07:11:07;8.00;18.00
20174;DHT22;10246;50.620;7.232;2024-02-26T07:13:36;8.00;18.20
20174;DHT22;10246;50.620;7.232;2024-02-26T07:16:03;8.00;18.60
20174;DHT22;10246;50.620;7.232;2024-02-26T07:18:30;8.00;19.30
20174;DHT22;10246;50.620;7.232;2024-02-26T07:20:57;8.00;19.90
20174;DHT22;10246;50.620;7.232;2024-02-26T07:23:24;8.00;20.70
20174;DHT22;10246;50.620;7.232;2024-02-26T07:25:50;8.10;21.50
20174;DHT22;10246;50.620;7.232;2024-02-26T07:28:18;8.10;21.00
20174;DHT22;10246;50.620;7.232;2024-02-26T07:30:46;8.10;21.40
20174;DHT22;10246;50.620;7.232;2024-02-26T07:33:13;8.10;21.50
20174;DHT22;10246;50.620;7.232;2024-02-26T07:35:40;8.10;21.30
20174;DHT22;10246;50.620;7.232;2024-02-26T07:38:07;8.10;21.70
20174;DHT22;10246;50.620;7.232;2024-02-26T07:40:33;8.30;21.50
20174;DHT22;10246;50.620;7.232;2024-02-26T07:43:00;8.30;20.00
20174;DHT22;10246;50.620;7.232;2024-02-26T07:45:27;8.20;20.90
20174;DHT22;10246;50.620;7.232;2024-02-26T07:47:55;8.10;20.50
20174;DHT22;10246;50.620;7.232;2024-02-26T07:50:22;8.10;21.70
20174;DHT22;10246;50.620;7.232;2024-02-26T07:52:48;8.20;21.00
20174;DHT22;10246;50.620;7.232;2024-02-26T07:55:16;8.20;19.50
20174;DHT22;10246;50.620;7.232;2024-02-26T07:57:44;8.10;20.40
20174;DHT22;10246;50.620;7.232;2024-02-26T08:00:12;8.10;21.00
20174;DHT22;10246;50.620;7.232;2024-02-26T08:02:42;8.10;22.40
20174;DHT22;10246;50.620;7.232;2024-02-26T08:05:10;8.20;22.10
20174;DHT22;10246;50.620;7.232;2024-02-26T08:07:36;8.10;21.60
20174;DHT22;10246;50.620;7.232;2024-02-26T08:10:03;8.10;22.60
20174;DHT22;10246;50.620;7.232;2024-02-26T08:12:30;8.00;23.10
20174;DHT22;10246;50.620;7.232;2024-02-26T08:14:57;8.10;23.60
20174;DHT22;10246;50.620;7.232;2024-02-26T08:17:24;8.00;24.10
20174;DHT22;10246;50.620;7.232;2024-02-26T08:19:52;8.10;23.90
20174;DHT22;10246;50.620;7.232;2024-02-26T08:22:20;8.10;25.00
20174;DHT22;10246;50.620;7.232;2024-02-26T08:24:47;8.10;24.80
20174;DHT22;10246;50.620;7.232;2024-02-26T08:27:14;8.10;24.70
20174;DHT22;10246;50.620;7.232;2024-02-26T08:29:40;8.10;25.00
20174;DHT22;10246;50.620;7.232;2024-02-26T08:32:07;8.10;25.10
20174;DHT22;10246;50.620;7.232;2024-02-26T08:34:34;8.10;25.00
20174;DHT22;10246;50.620;7.232;2024-02-26T08:37:00;8.20;25.10
20174;DHT22;10246;50.620;7.232;2024-02-26T08:39:29;8.10;24.70
20174;DHT22;10246;50.620;7.232;2024-02-26T08:41:55;8.10;25.10
20174;DHT22;10246;50.620;7.232;2024-02-26T08:44:22;8.20;25.10
20174;DHT22;10246;50.620;7.232;2024-02-26T08:46:49;8.20;24.70
20174;DHT22;10246;50.620;7.232;2024-02-26T08:49:16;8.20;24.50
20174;DHT22;10246;50.620;7.232;2024-02-26T08:51:43;8.10;25.00
20174;DHT22;10246;50.620;7.232;2024-02-26T08:54:10;8.20;25.80
20174;DHT22;10246;50.620;7.232;2024-02-26T08:56:38;8.20;25.70
20174;DHT22;10246;50.620;7.232;2024-02-26T08:59:05;8.20;26.00
20174;DHT22;10246;50.620;7.232;2024-02-26T09:01:32;8.10;25.80
20174;DHT22;10246;50.620;7.232;2024-02-26T09:03:59;8.10;26.60
20174;DHT22;10246;50.620;7.232;2024-02-26T09:06:25;8.20;27.00
20174;DHT22;10246;50.620;7.232;2024-02-26T09:08:52;8.10;26.70
20174;DHT22;10246;50.620;7.232;2024-02-26T09:11:19;8.10;27.20
20174;DHT22;10246;50.620;7.232;2024-02-26T09:13:47;8.20;27.10
20174;DHT22;10246;50.620;7.232;2024-02-26T09:16:14;8.20;27.30
20174;DHT22;10246;50.620;7.232;2024-02-26T09:18:40;8.20;27.20
20174;DHT22;10246;50.620;7.232;2024-02-26T09:21:07;8.30;27.50
20174;DHT22;10246;50.620;7.232;2024-02-26T09:23:34;8.40;26.60
20174;DHT22;10246;50.620;7.232;2024-02-26T09:26:02;8.40;24.80
20174;DHT22;10246;50.620;7.232;2024-02-26T09:28:29;8.40;22.60
20174;DHT22;10246;50.620;7.232;2024-02-26T09:31:01;8.30;22.90
20174;DHT22;10246;50.620;7.232;2024-02-26T09:33:28;8.40;23.70
20174;DHT22;10246;50.620;7.232;2024-02-26T09:35:55;8.40;23.20
20174;DHT22;10246;50.620;7.232;2024-02-26T09:38:21;8.50;22.20
20174;DHT22;10246;50.620;7.232;2024-02-26T09:40:49;8.50;21.90
20174;DHT22;10246;50.620;7.232;2024-02-26T09:43:17;8.40;20.80
20174;DHT22;10246;50.620;7.232;2024-02-26T09:45:47;8.50;22.00
20174;DHT22;10246;50.620;7.232;2024-02-26T09:48:17;8.50;22.30
20174;DHT22;10246;50.620;7.232;2024-02-26T09:50:44;8.50;22.70
20174;DHT22;10246;50.620;7.232;2024-02-26T09:53:12;8.50;22.40
20174;DHT22;10246;50.620;7.232;2024-02-26T09:55:40;8.60;20.80
20174;DHT22;10246;50.620;7.232;2024-02-26T09:58:07;8.60;20.10
20174;DHT22;10246;50.620;7.232;2024-02-26T10:00:37;8.50;21.40
20174;DHT22;10246;50.620;7.232;2024-02-26T10:03:05;8.50;23.10
20174;DHT22;10246;50.620;7.232;2024-02-26T10:05:34;8.60;23.90
20174;DHT22;10246;50.620;7.232;2024-02-26T10:08:01;8.70;24.00
20174;DHT22;10246;50.620;7.232;2024-02-26T10:10:29;8.80;22.40
20174;DHT22;10246;50.620;7.232;2024-02-26T10:12:57;8.90;19.60
20174;DHT22;10246;50.620;7.232;2024-02-26T10:15:24;8.90;19.50
20174;DHT22;10246;50.620;7.232;2024-02-26T10:17:51;8.90;20.10
20174;DHT22;10246;50.620;7.232;2024-02-26T10:20:19;8.90;20.10
20174;DHT22;10246;50.620;7.232;2024-02-26T10:22:48;8.90;20.40
20174;DHT22;10246;50.620;7.232;2024-02-26T10:25:15;9.00;21.30
20174;DHT22;10246;50.620;7.232;2024-02-26T10:27:42;9.10;19.60
20174;DHT22;10246;50.620;7.232;2024-02-26T10:30:16;9.10;19.30
20174;DHT22;10246;50.620;7.232;2024-02-26T10:32:44;9.10;17.80
20174;DHT22;10246;50.620;7.232;2024-02-26T10:35:12;9.10;18.60
20174;DHT22;10246;50.620;7.232;2024-02-26T10:37:39;9.10;17.90
20174;DHT22;10246;50.620;7.232;2024-02-26T10:40:10;9.10;18.40
20174;DHT22;10246;50.620;7.232;2024-02-26T10:42:36;9.10;19.10
20174;DHT22;10246;50.620;7.232;2024-02-26T10:45:04;9.20;17.20
20174;DHT22;10246;50.620;7.232;2024-02-26T10:47:31;9.10;16.90
20174;DHT22;10246;50.620;7.232;2024-02-26T10:49:59;9.10;17.20
20174;DHT22;10246;50.620;7.232;2024-02-26T10:52:27;9.20;17.70
20174;DHT22;10246;50.620;7.232;2024-02-26T10:54:57;9.20;18.20
20174;DHT22;10246;50.620;7.232;2024-02-26T10:57:29;9.30;17.10
20174;DHT22;10246;50.620;7.232;2024-02-26T10:59:58;9.20;16.20
20174;DHT22;10246;50.620;7.232;2024-02-26T11:02:26;9.20;16.70
20174;DHT22;10246;50.620;7.232;2024-02-26T11:04:54;9.20;15.80
20174;DHT22;10246;50.620;7.232;2024-02-26T11:07:21;9.20;16.40
20174;DHT22;10246;50.620;7.232;2024-02-26T11:09:49;9.10;17.40
20174;DHT22;10246;50.620;7.232;2024-02-26T11:12:18;9.10;17.70
20174;DHT22;10246;50.620;7.232;2024-02-26T11:14:46;9.10;17.80
20174;DHT22;10246;50.620;7.232;2024-02-26T11:17:15;9.00;17.50
20174;DHT22;10246;50.620;7.232;2024-02-26T11:19:43;9.00;17.50
20174;DHT22;10246;50.620;7.232;2024-02-26T11:22:11;8.90;17.70
20174;DHT22;10246;50.620;7.232;2024-02-26T11:24:38;8.90;18.50
20174;DHT22;10246;50.620;7.232;2024-02-26T11:27:10;8.90;18.80
20174;DHT22;10246;50.620;7.232;2024-02-26T11:29:41;8.90;19.90
20174;DHT22;10246;50.620;7.232;2024-02-26T11:32:11;9.00;20.20
20174;DHT22;10246;50.620;7.232;2024-02-26T11:34:38;9.10;19.20
20174;DHT22;10246;50.620;7.232;2024-02-26T11:37:12;9.20;19.20
20174;DHT22;10246;50.620;7.232;2024-02-26T11:39:40;9.20;19.80
20174;DHT22;10246;50.620;7.232;2024-02-26T11:42:07;9.20;18.90
20174;DHT22;10246;50.620;7.232;2024-02-26T11:44:35;9.20;19.50
20174;DHT22;10246;50.620;7.232;2024-02-26T11:47:11;9.20;18.80
20174;DHT22;10246;50.620;7.232;2024-02-26T11:49:38;9.20;19.60
20174;DHT22;10246;50.620;7.232;2024-02-26T11:52:07;9.20;19.70
20174;DHT22;10246;50.620;7.232;2024-02-26T11:54:45;9.30;19.60
20174;DHT22;10246;50.620;7.232;2024-02-26T11:57:23;9.30;19.00
20174;DHT22;10246;50.620;7.232;2024-02-26T11:59:50;9.30;19.40
20174;DHT22;10246;50.620;7.232;2024-02-26T12:02:46;9.30;19.40
20174;DHT22;10246;50.620;7.232;2024-02-26T12:05:15;9.40;19.30
20174;DHT22;10246;50.620;7.232;2024-02-26T12:07:44;9.40;19.20
20174;DHT22;10246;50.620;7.232;2024-02-26T12:10:30;9.40;18.40
20174;DHT22;10246;50.620;7.232;2024-02-26T12:13:00;9.50;17.70
20174;DHT22;10246;50.620;7.232;2024-02-26T12:15:32;9.50;18.30
20174;DHT22;10246;50.620;7.232;2024-02-26T12:18:05;9.60;18.70
20174;DHT22;10246;50.620;7.232;2024-02-26T12:20:32;9.60;19.10
20174;DHT22;10246;50.620;7.232;2024-02-26T12:22:59;9.60;17.90
20174;DHT22;10246;50.620;7.232;2024-02-26T12:25:27;9.50;17.90
20174;DHT22;10246;50.620;7.232;2024-02-26T12:27:55;9.60;18.90
20174;DHT22;10246;50.620;7.232;2024-02-26T12:30:22;9.60;18.90
20174;DHT22;10246;50.620;7.232;2024-02-26T12:32:50;9.70;18.50
20174;DHT22;10246;50.620;7.232;2024-02-26T12:35:18;9.70;19.50
20174;DHT22;10246;50.620;7.232;2024-02-26T12:37:46;9.70;17.10
20174;DHT22;10246;50.620;7.232;2024-02-26T12:40:14;9.70;18.20
20174;DHT22;10246;50.620;7.232;2024-02-26T12:42:41;9.70;17.40
20174;DHT22;10246;50.620;7.232;2024-02-26T12:45:09;9.80;18.70
20174;DHT22;10246;50.620;7.232;2024-02-26T12:47:37;9.80;17.50
20174;DHT22;10246;50.620;7.232;2024-02-26T12:50:04;9.80;18.50
20174;DHT22;10246;50.620;7.232;2024-02-26T12:52:33;9.80;18.20
20174;DHT22;10246;50.620;7.232;2024-02-26T12:55:01;9.80;18.60
20174;DHT22;10246;50.620;7.232;2024-02-26T12:57:29;9.80;19.10
20174;DHT22;10246;50.620;7.232;2024-02-26T12:59:57;9.80;19.60
20174;DHT22;10246;50.620;7.232;2024-02-26T13:02:24;9.70;20.10
20174;DHT22;10246;50.620;7.232;2024-02-26T13:04:51;9.80;20.30
20174;DHT22;10246;50.620;7.232;2024-02-26T13:07:19;9.80;20.60
20174;DHT22;10246;50.620;7.232;2024-02-26T13:09:48;9.70;20.90
20174;DHT22;10246;50.620;7.232;2024-02-26T13:12:16;9.80;20.30
20174;DHT22;10246;50.620;7.232;2024-02-26T13:14:43;9.80;19.80
20174;DHT22;10246;50.620;7.232;2024-02-26T13:17:10;9.80;20.60
20174;DHT22;10246;50.620;7.232;2024-02-26T13:19:37;9.80;20.60
20174;DHT22;10246;50.620;7.232;2024-02-26T13:22:04;9.80;20.20
20174;DHT22;10246;50.620;7.232;2024-02-26T13:24:32;9.80;20.70
20174;DHT22;10246;50.620;7.232;2024-02-26T13:27:00;9.70;21.40
20174;DHT22;10246;50.620;7.232;2024-02-26T13:29:28;9.70;22.20
20174;DHT22;10246;50.620;7.232;2024-02-26T13:31:57;9.80;22.10
20174;DHT22;10246;50.620;7.232;2024-02-26T13:34:23;9.80;21.80
20174;DHT22;10246;50.620;7.232;2024-02-26T13:36:51;9.80;22.70
20174;DHT22;10246;50.620;7.232;2024-02-26T13:39:22;9.80;22.10
20174;DHT22;10246;50.620;7.232;2024-02-26T13:41:49;9.80;21.40
20174;DHT22;10246;50.620;7.232;2024-02-26T13:44:17;9.70;22.20
20174;DHT22;10246;50.620;7.232;2024-02-26T13:46:44;9.70;22.20
20174;DHT22;10246;50.620;7.232;2024-02-26T13:49:10;9.70;22.40
20174;DHT22;10246;50.620;7.232;2024-02-26T13:51:37;9.70;23.80
20174;DHT22;10246;50.620;7.232;2024-02-26T13:54:04;9.70;23.80
20174;DHT22;10246;50.620;7.232;2024-02-26T13:56:31;9.60;24.60
20174;DHT22;10246;50.620;7.232;2024-02-26T13:58:58;9.80;25.00
20174;DHT22;10246;50.620;7.232;2024-02-26T14:01:26;9.80;23.90
20174;DHT22;10246;50.620;7.232;2024-02-26T14:03:53;9.80;23.90
20174;DHT22;10246;50.620;7.232;2024-02-26T14:06:25;9.70;24.30
20174;DHT22;10246;50.620;7.232;2024-02-26T14:08:52;9.70;24.40
20174;DHT22;10246;50.620;7.232;2024-02-26T14:11:19;9.60;24.30
20174;DHT22;10246;50.620;7.232;2024-02-26T14:13:46;9.70;24.90
20174;DHT22;10246;50.620;7.232;2024-02-26T14:16:13;9.70;23.50
20174;DHT22;10246;50.620;7.232;2024-02-26T14:18:41;9.70;25.00
20174;DHT22;10246;50.620;7.232;2024-02-26T14:21:10;9.70;26.10
20174;DHT22;10246;50.620;7.232;2024-02-26T14:23:36;9.70;26.00
20174;DHT22;10246;50.620;7.232;2024-02-26T14:26:03;9.70;26.00
20174;DHT22;10246;50.620;7.232;2024-02-26T14:28:30;9.70;26.20
20174;DHT22;10246;50.620;7.232;2024-02-26T14:30:58;9.60;27.10
20174;DHT22;10246;50.620;7.232;2024-02-26T14:33:25;9.60;27.80
20174;DHT22;10246;50.620;7.232;2024-02-26T14:35:53;9.60;28.20
20174;DHT22;10246;50.620;7.232;2024-02-26T14:38:19;9.60;28.90
20174;DHT22;10246;50.620;7.232;2024-02-26T14:40:46;9.70;28.80
20174;DHT22;10246;50.620;7.232;2024-02-26T14:43:13;9.70;28.70
20174;DHT22;10246;50.620;7.232;2024-02-26T14:45:40;9.80;27.60
20174;DHT22;10246;50.620;7.232;2024-02-26T14:48:07;9.80;27.50
20174;DHT22;10246;50.620;7.232;2024-02-26T14:50:35;9.80;27.40
20174;DHT22;10246;50.620;7.232;2024-02-26T14:53:04;9.70;28.00
20174;DHT22;10246;50.620;7.232;2024-02-26T14:55:31;9.70;28.70
20174;DHT22;10246;50.620;7.232;2024-02-26T14:57:58;9.70;29.10
20174;DHT22;10246;50.620;7.232;2024-02-26T15:00:24;9.70;29.70
20174;DHT22;10246;50.620;7.232;2024-02-26T15:02:51;9.70;29.60
20174;DHT22;10246;50.620;7.232;2024-02-26T15:05:20;9.70;28.00
20174;DHT22;10246;50.620;7.232;2024-02-26T15:07:46;9.70;27.60
20174;DHT22;10246;50.620;7.232;2024-02-26T15:10:15;9.60;28.10
20174;DHT22;10246;50.620;7.232;2024-02-26T15:12:41;9.70;28.90
20174;DHT22;10246;50.620;7.232;2024-02-26T15:15:08;9.70;29.20
20174;DHT22;10246;50.620;7.232;2024-02-26T15:17:35;9.70;29.80
20174;DHT22;10246;50.620;7.232;2024-02-26T15:20:03;9.70;29.30
20174;DHT22;10246;50.620;7.232;2024-02-26T15:22:33;9.70;29.40
20174;DHT22;10246;50.620;7.232;2024-02-26T15:24:59;9.70;30.00
20174;DHT22;10246;50.620;7.232;2024-02-26T15:27:27;9.70;29.60
20174;DHT22;10246;50.620;7.232;2024-02-26T15:29:54;9.70;29.80
20174;DHT22;10246;50.620;7.232;2024-02-26T15:32:23;9.70;29.30
20174;DHT22;10246;50.620;7.232;2024-02-26T15:34:51;9.70;29.60
20174;DHT22;10246;50.620;7.232;2024-02-26T15:37:18;9.70;29.10
20174;DHT22;10246;50.620;7.232;2024-02-26T15:39:45;9.70;29.10
20174;DHT22;10246;50.620;7.232;2024-02-26T15:42:12;9.70;28.00
20174;DHT22;10246;50.620;7.232;2024-02-26T15:44:40;9.80;26.10
20174;DHT22;10246;50.620;7.232;2024-02-26T15:47:07;9.80;26.10
20174;DHT22;10246;50.620;7.232;2024-02-26T15:49:34;9.80;26.10
20174;DHT22;10246;50.620;7.232;2024-02-26T15:52:01;9.80;26.10